createdAt,value
2018-02-09T00:01:01.780Z,6.73
2018-02-09T00:03:30.343Z,5.67
2018-02-09T00:05:58.845Z,5.30
2018-02-09T00:08:26.578Z,5.40
2018-02-09T00:10:54.309Z,6.10
2018-02-09T00:13:22.054Z,6.90
2018-02-09T00:15:50.561Z,6.13
2018-02-09T00:18:18.304Z,6.27
2018-02-09T00:20:46.124Z,6.80
2018-02-09T00:23:14.662Z,6.20
2018-02-09T00:25:43.167Z,6.50
2018-02-09T00:28:10.957Z,6.00
2018-02-09T00:30:38.699Z,5.90
2018-02-09T00:33:06.492Z,5.20
2018-02-09T00:35:34.267Z,5.90
2018-02-09T00:38:02.021Z,5.47
2018-02-09T00:40:29.910Z,4.97
2018-02-09T00:42:57.688Z,5.67
2018-02-09T00:45:25.488Z,6.33
2018-02-09T00:47:53.282Z,5.40
2018-02-09T00:50:20.998Z,7.00
2018-02-09T00:52:48.774Z,6.50
2018-02-09T00:55:17.332Z,4.97
2018-02-09T00:57:45.065Z,5.50
2018-02-09T01:00:13.277Z,5.87
2018-02-09T01:02:41.088Z,7.07
2018-02-09T01:05:08.806Z,6.53
2018-02-09T01:07:36.532Z,5.87
2018-02-09T01:10:04.393Z,5.70
2018-02-09T01:12:32.112Z,6.00
2018-02-09T01:14:59.897Z,4.70
2018-02-09T01:17:27.764Z,6.20
2018-02-09T01:19:55.546Z,5.40
2018-02-09T01:22:23.327Z,6.17
2018-02-09T01:24:51.051Z,6.50
2018-02-09T01:27:18.776Z,6.00
2018-02-09T01:29:46.511Z,5.30
2018-02-09T01:32:15.045Z,5.80
2018-02-09T01:34:42.764Z,5.70
2018-02-09T01:37:10.482Z,5.00
2018-02-09T01:39:38.199Z,5.27
2018-02-09T01:42:06.678Z,5.03
2018-02-09T01:44:34.401Z,5.03
2018-02-09T01:47:02.289Z,11.60
2018-02-09T01:49:30.020Z,6.03
2018-02-09T01:51:57.748Z,6.30
2018-02-09T01:54:25.543Z,5.80
2018-02-09T01:56:53.279Z,5.97
2018-02-09T01:59:21.060Z,6.03
2018-02-09T02:01:48.779Z,5.60
2018-02-09T02:04:16.565Z,5.63
2018-02-09T02:06:45.065Z,5.37
2018-02-09T02:09:12.835Z,5.23
2018-02-09T02:11:40.630Z,5.27
2018-02-09T02:14:08.424Z,5.60
2018-02-09T02:16:36.182Z,5.60
2018-02-09T02:19:03.942Z,6.13
2018-02-09T02:21:31.669Z,4.97
2018-02-09T02:23:59.454Z,5.57
2018-02-09T02:26:27.185Z,6.37
2018-02-09T02:28:54.960Z,6.20
2018-02-09T02:31:22.727Z,6.03
2018-02-09T02:33:50.573Z,6.03
2018-02-09T02:36:18.355Z,5.60
2018-02-09T02:38:46.907Z,5.50
2018-02-09T02:41:14.706Z,6.33
2018-02-09T02:43:42.487Z,5.60
2018-02-09T02:46:10.260Z,6.50
2018-02-09T02:48:38.079Z,4.93
2018-02-09T02:51:05.805Z,5.90
2018-02-09T02:53:33.595Z,5.70
2018-02-09T02:56:01.401Z,5.43
2018-02-09T02:58:29.953Z,5.20
2018-02-09T03:00:57.745Z,5.97
2018-02-09T03:03:25.526Z,5.60
2018-02-09T03:05:53.262Z,5.70
2018-02-09T03:08:21.054Z,6.00
2018-02-09T03:10:48.799Z,5.93
2018-02-09T03:13:17.360Z,5.77
2018-02-09T03:15:45.186Z,5.50
2018-02-09T03:18:13.200Z,5.70
2018-02-09T03:20:40.922Z,5.80
2018-02-09T03:23:09.498Z,7.67
2018-02-09T03:25:37.272Z,5.97
2018-02-09T03:28:05.052Z,5.50
2018-02-09T03:30:32.837Z,6.70
2018-02-09T03:33:00.623Z,5.23
2018-02-09T03:35:28.422Z,4.90
2018-02-09T03:37:56.241Z,5.27
2018-02-09T03:40:24.003Z,6.23
2018-02-09T03:42:51.719Z,5.77
2018-02-09T03:45:19.439Z,5.50
2018-02-09T03:47:47.169Z,6.07
2018-02-09T03:50:14.892Z,6.30
2018-02-09T03:52:42.673Z,6.90
2018-02-09T03:55:10.457Z,6.07
2018-02-09T03:57:38.204Z,6.00
2018-02-09T04:00:06.681Z,5.67
2018-02-09T04:02:34.400Z,5.43
2018-02-09T04:05:02.190Z,6.00
2018-02-09T04:07:29.938Z,6.50
2018-02-09T04:09:57.655Z,5.00
2018-02-09T04:12:25.392Z,5.97
2018-02-09T04:14:53.169Z,5.30
2018-02-09T04:17:20.902Z,5.43
2018-02-09T04:19:48.674Z,5.20
2018-02-09T04:22:16.407Z,5.50
2018-02-09T04:24:44.141Z,5.53
2018-02-09T04:27:11.918Z,5.50
2018-02-09T04:29:39.746Z,4.87
2018-02-09T04:32:07.535Z,5.70
2018-02-09T04:34:35.270Z,6.37
2018-02-09T04:37:03.063Z,5.30
2018-02-09T04:39:30.788Z,5.10
2018-02-09T04:41:58.518Z,5.43
2018-02-09T04:44:26.310Z,5.53
2018-02-09T04:46:54.046Z,6.13
2018-02-09T04:49:21.780Z,6.03
2018-02-09T04:51:49.572Z,6.03
2018-02-09T04:54:17.323Z,6.27
2018-02-09T04:56:45.045Z,6.60
2018-02-09T04:59:13.677Z,6.03
2018-02-09T05:01:41.447Z,6.93
2018-02-09T05:04:09.229Z,7.03
2018-02-09T05:06:37.019Z,6.00
2018-02-09T05:09:04.832Z,6.50
2018-02-09T05:11:32.608Z,7.20
2018-02-09T05:14:00.351Z,6.80
2018-02-09T05:16:28.087Z,7.43
2018-02-09T05:18:55.880Z,6.53
2018-02-09T05:21:23.662Z,6.60
2018-02-09T05:23:51.368Z,6.82
2018-02-09T05:26:19.127Z,7.07
2018-02-09T05:28:46.924Z,7.07
2018-02-09T05:31:15.447Z,6.20
2018-02-09T05:33:43.220Z,5.97
2018-02-09T05:36:11.114Z,6.63
2018-02-09T05:38:38.883Z,6.90
2018-02-09T05:41:06.803Z,7.23
2018-02-09T05:43:34.596Z,7.90
2018-02-09T05:46:06.670Z,6.97
2018-02-09T05:48:36.447Z,5.87
2018-02-09T05:51:07.180Z,6.20
2018-02-09T05:53:35.680Z,6.70
2018-02-09T05:56:03.480Z,6.33
2018-02-09T05:58:36.249Z,7.20
2018-02-09T06:01:04.440Z,7.80
2018-02-09T06:03:32.165Z,7.47
2018-02-09T06:06:00.037Z,8.03
2018-02-09T06:08:27.816Z,7.73
2018-02-09T06:10:55.535Z,7.70
2018-02-09T06:13:23.250Z,8.43
2018-02-09T06:15:51.024Z,8.43
2018-02-09T06:18:18.848Z,8.47
2018-02-09T06:20:46.612Z,8.27
2018-02-09T06:23:14.362Z,8.90
2018-02-09T06:25:42.093Z,8.70
2018-02-09T06:28:09.895Z,9.60
2018-02-09T06:30:37.698Z,8.00
2018-02-09T06:33:05.433Z,9.23
2018-02-09T06:35:34.439Z,10.60
2018-02-09T06:38:02.268Z,8.67
2018-02-09T06:40:30.055Z,9.20
2018-02-09T06:42:57.837Z,8.80
2018-02-09T06:45:25.637Z,10.60
2018-02-09T06:47:53.360Z,9.40
2018-02-09T06:50:21.090Z,8.47
2018-02-09T06:52:48.835Z,10.23
2018-02-09T06:55:16.552Z,9.10
2018-02-09T06:57:50.036Z,12.10
2018-02-09T07:00:17.858Z,8.60
2018-02-09T07:02:45.605Z,8.70
2018-02-09T07:05:13.338Z,9.53
2018-02-09T07:07:41.082Z,8.67
2018-02-09T07:10:08.798Z,8.20
2018-02-09T07:12:36.531Z,8.20
2018-02-09T07:15:04.273Z,8.63
2018-02-09T07:17:32.012Z,7.70
2018-02-09T07:19:59.799Z,8.00
2018-02-09T07:22:27.630Z,8.10
2018-02-09T07:24:55.361Z,8.30
2018-02-09T07:27:23.126Z,8.97
2018-02-09T07:29:50.857Z,9.03
2018-02-09T07:32:18.632Z,8.53
2018-02-09T07:34:46.422Z,9.27
2018-02-09T07:37:14.183Z,8.73
2018-02-09T07:39:41.920Z,9.70
2018-02-09T07:42:09.652Z,10.67
2018-02-09T07:44:37.463Z,9.57
2018-02-09T07:47:05.241Z,10.87
2018-02-09T07:49:33.189Z,9.43
2018-02-09T07:52:01.066Z,9.90
2018-02-09T07:54:28.810Z,9.67
2018-02-09T07:56:56.527Z,10.03
2018-02-09T07:59:24.255Z,10.73
2018-02-09T08:01:52.058Z,10.20
2018-02-09T08:04:19.783Z,11.70
2018-02-09T08:06:47.564Z,11.40
2018-02-09T08:09:15.347Z,10.80
2018-02-09T08:11:43.115Z,11.90
2018-02-09T08:14:10.871Z,14.50
2018-02-09T08:16:38.653Z,13.97
2018-02-09T08:19:06.448Z,12.97
2018-02-09T08:21:34.180Z,14.50
2018-02-09T08:24:01.930Z,16.40
2018-02-09T08:26:29.656Z,17.20
2018-02-09T08:28:57.456Z,14.63
2018-02-09T08:31:25.202Z,15.93
2018-02-09T08:33:53.153Z,15.57
2018-02-09T08:36:20.905Z,16.50
2018-02-09T08:38:48.633Z,16.20
2018-02-09T08:41:16.420Z,16.07
2018-02-09T08:43:44.203Z,17.57
2018-02-09T08:46:11.949Z,15.73
2018-02-09T08:48:39.677Z,16.60
2018-02-09T08:51:07.433Z,17.37
2018-02-09T08:53:35.221Z,16.93
2018-02-09T08:56:02.945Z,16.90
2018-02-09T08:58:30.747Z,16.80
2018-02-09T09:00:58.475Z,18.93
2018-02-09T09:03:26.200Z,17.00
2018-02-09T09:05:53.933Z,18.60
2018-02-09T09:08:21.746Z,19.97
2018-02-09T09:10:49.524Z,19.30
2018-02-09T09:13:17.258Z,19.03
2018-02-09T09:15:45.020Z,20.40
2018-02-09T09:18:13.593Z,21.10
2018-02-09T09:20:42.094Z,19.60
2018-02-09T09:23:09.851Z,20.73
2018-02-09T09:25:38.416Z,21.53
2018-02-09T09:28:06.155Z,21.13
2018-02-09T09:30:34.772Z,20.90
2018-02-09T09:33:02.506Z,21.00
2018-02-09T09:35:30.296Z,21.80
2018-02-09T09:37:58.095Z,22.80
2018-02-09T09:40:25.817Z,23.00
2018-02-09T09:42:53.550Z,21.90
2018-02-09T09:45:21.317Z,21.00
2018-02-09T09:47:49.121Z,20.40
2018-02-09T09:50:16.866Z,21.87
2018-02-09T09:52:44.652Z,21.57
2018-02-09T09:55:12.433Z,20.17
2018-02-09T09:57:40.168Z,20.83
2018-02-09T10:00:07.901Z,21.77
2018-02-09T10:02:40.378Z,19.80
2018-02-09T10:05:08.172Z,18.00
2018-02-09T10:07:35.951Z,19.20
2018-02-09T10:10:03.762Z,20.63
2018-02-09T10:12:33.828Z,21.73
2018-02-09T10:15:01.620Z,22.20
2018-02-09T10:17:29.392Z,24.37
2018-02-09T10:19:57.272Z,24.20
2018-02-09T10:22:25.839Z,27.00
2018-02-09T10:24:53.673Z,25.20
2018-02-09T10:27:22.146Z,24.47
2018-02-09T10:29:49.940Z,24.00
2018-02-09T10:32:17.737Z,26.37
2018-02-09T10:34:45.457Z,25.90
2018-02-09T10:37:13.232Z,24.23
2018-02-09T10:39:41.028Z,25.90
2018-02-09T10:42:08.784Z,23.77
2018-02-09T10:44:36.511Z,26.50
2018-02-09T10:47:04.398Z,24.70
2018-02-09T10:49:32.216Z,24.77
2018-02-09T10:52:00.039Z,23.30
2018-02-09T10:54:27.907Z,23.30
2018-02-09T10:56:55.660Z,23.07
2018-02-09T10:59:23.435Z,24.47
2018-02-09T11:01:51.232Z,24.37
2018-02-09T11:04:19.042Z,22.67
2018-02-09T11:06:46.779Z,26.20
2018-02-09T11:09:14.598Z,23.87
2018-02-09T11:11:42.347Z,23.07
2018-02-09T11:14:10.149Z,22.87
2018-02-09T11:16:38.040Z,20.73
2018-02-09T11:19:05.853Z,23.87
2018-02-09T11:21:37.953Z,23.13
2018-02-09T11:24:05.864Z,20.40
2018-02-09T11:26:33.588Z,23.20
2018-02-09T11:29:01.382Z,22.80
2018-02-09T11:31:29.199Z,22.43
2018-02-09T11:33:56.934Z,23.30
2018-02-09T11:36:24.663Z,22.10
2018-02-09T11:38:53.151Z,21.93
2018-02-09T11:41:20.890Z,20.73
2018-02-09T11:43:48.693Z,59.03
2018-02-09T11:46:16.456Z,23.73
2018-02-09T11:48:44.220Z,22.73
2018-02-09T11:51:11.969Z,22.43
2018-02-09T11:53:39.705Z,23.13
2018-02-09T11:56:07.580Z,21.93
2018-02-09T11:58:35.326Z,24.13
2018-02-09T12:01:03.868Z,22.87
2018-02-09T12:03:31.670Z,24.03
2018-02-09T12:05:59.448Z,23.80
2018-02-09T12:08:27.228Z,25.37
2018-02-09T12:10:55.096Z,24.40
2018-02-09T12:13:22.831Z,25.70
2018-02-09T12:15:50.573Z,24.83
2018-02-09T12:18:18.446Z,27.00
2018-02-09T12:20:46.173Z,28.93
2018-02-09T12:23:13.893Z,30.20
2018-02-09T12:25:41.637Z,28.97
2018-02-09T12:28:10.657Z,29.70
2018-02-09T12:30:38.457Z,29.50
2018-02-09T12:33:06.175Z,29.70
2018-02-09T12:35:33.962Z,28.87
2018-02-09T12:38:01.711Z,29.43
2018-02-09T12:40:29.437Z,30.80
2018-02-09T12:42:57.220Z,32.60
2018-02-09T12:45:25.079Z,31.47
2018-02-09T12:47:52.844Z,30.80
2018-02-09T12:50:20.705Z,31.93
2018-02-09T12:52:48.473Z,29.70
2018-02-09T12:55:16.369Z,30.67
2018-02-09T12:57:44.141Z,29.33
2018-02-09T13:00:11.881Z,30.40
2018-02-09T13:02:39.620Z,30.60
2018-02-09T13:05:07.374Z,31.27
2018-02-09T13:07:35.131Z,28.80
2018-02-09T13:10:03.033Z,26.40
2018-02-09T13:12:44.198Z,25.67
2018-02-09T13:15:13.670Z,30.67
2018-02-09T13:17:41.554Z,30.50
2018-02-09T13:20:09.632Z,30.10
2018-02-09T13:22:52.962Z,30.90
2018-02-09T13:25:21.932Z,35.93
2018-02-09T13:27:51.190Z,32.50
2018-02-09T13:30:19.266Z,30.47
2018-02-09T13:32:59.609Z,28.80
2018-02-09T13:35:28.444Z,29.97
2018-02-09T13:37:57.948Z,32.07
2018-02-09T13:40:28.252Z,30.60
2018-02-09T13:42:56.843Z,31.37
2018-02-09T13:45:26.088Z,33.70
2018-02-09T13:47:57.335Z,32.70
2018-02-09T13:50:26.335Z,28.40
2018-02-09T13:52:55.876Z,32.27
2018-02-09T13:55:24.585Z,30.90
2018-02-09T13:57:55.006Z,32.80
2018-02-09T14:00:22.747Z,29.27
2018-02-09T14:02:51.339Z,31.83
2018-02-09T14:05:19.079Z,30.47
2018-02-09T14:07:46.869Z,31.50
2018-02-09T14:10:14.833Z,30.27
2018-02-09T14:12:42.620Z,30.17
2018-02-09T14:15:11.122Z,32.40
2018-02-09T14:17:39.101Z,31.60
2018-02-09T14:20:06.920Z,32.23
2018-02-09T14:22:34.718Z,31.87
2018-02-09T14:25:04.273Z,36.10
2018-02-09T14:27:32.012Z,39.87
2018-02-09T14:29:59.745Z,41.30
2018-02-09T14:32:28.452Z,42.30
2018-02-09T14:34:56.247Z,39.90
2018-02-09T14:37:24.045Z,41.33
2018-02-09T14:39:51.832Z,41.67
2018-02-09T14:42:19.667Z,42.90
2018-02-09T14:44:47.402Z,43.27
2018-02-09T14:47:16.342Z,41.73
2018-02-09T14:49:44.144Z,42.17
2018-02-09T14:52:11.892Z,39.53
2018-02-09T14:54:39.655Z,36.97
2018-02-09T14:57:07.445Z,39.23
2018-02-09T14:59:35.264Z,40.40
2018-02-09T15:02:03.034Z,38.87
2018-02-09T15:04:30.822Z,43.40
2018-02-09T15:06:58.612Z,43.93
2018-02-09T15:09:26.417Z,42.50
2018-02-09T15:11:54.177Z,45.83
2018-02-09T15:14:22.932Z,44.80
2018-02-09T15:16:51.475Z,47.23
2018-02-09T15:19:19.209Z,46.20
2018-02-09T15:21:47.031Z,46.80
2018-02-09T15:24:14.848Z,45.20
2018-02-09T15:26:42.586Z,43.57
2018-02-09T15:29:10.315Z,43.93
2018-02-09T15:31:38.058Z,43.37
2018-02-09T15:34:05.841Z,44.33
2018-02-09T15:36:33.585Z,44.90
2018-02-09T15:39:01.393Z,47.13
2018-02-09T15:41:29.133Z,50.03
2018-02-09T15:43:56.941Z,47.97
2018-02-09T15:46:25.575Z,47.50
2018-02-09T15:48:53.297Z,48.10
2018-02-09T15:51:21.731Z,48.87
2018-02-09T15:53:49.669Z,50.60
2018-02-09T15:56:20.312Z,47.57
2018-02-09T15:58:51.936Z,48.70
2018-02-09T16:01:24.438Z,49.80
2018-02-09T16:03:54.955Z,48.40
2018-02-09T16:06:24.834Z,48.93
2018-02-09T16:08:56.698Z,51.50
2018-02-09T16:11:27.473Z,49.00
2018-02-09T16:13:57.174Z,50.20
2018-02-09T16:16:28.274Z,51.00
2018-02-09T16:18:59.068Z,51.23
2018-02-09T16:21:29.110Z,51.93
2018-02-09T16:24:02.203Z,49.80
2018-02-09T16:26:31.145Z,50.47
2018-02-09T16:29:01.244Z,48.77
2018-02-09T16:31:29.181Z,50.70
2018-02-09T16:33:59.051Z,56.83
2018-02-09T16:36:28.778Z,52.83
2018-02-09T16:38:59.149Z,53.57
2018-02-09T16:41:29.866Z,51.93
2018-02-09T16:43:58.134Z,52.47
2018-02-09T16:46:27.215Z,53.87
2018-02-09T16:48:54.926Z,51.80
2018-02-09T16:51:22.671Z,53.63
2018-02-09T16:53:50.494Z,53.47
2018-02-09T16:56:18.376Z,53.13
2018-02-09T16:58:46.141Z,52.90
2018-02-09T17:01:13.947Z,55.17
2018-02-09T17:03:42.881Z,57.50
2018-02-09T17:06:13.092Z,52.63
2018-02-09T17:08:41.125Z,53.33
2018-02-09T17:11:08.939Z,60.43
2018-02-09T17:13:36.712Z,60.00
2018-02-09T17:16:04.595Z,53.70
2018-02-09T17:18:33.306Z,54.90
2018-02-09T17:21:01.046Z,57.27
2018-02-09T17:23:28.839Z,55.90
2018-02-09T17:25:56.953Z,55.57
2018-02-09T17:28:25.976Z,61.33
2018-02-09T17:30:53.720Z,58.60
2018-02-09T17:33:35.270Z,59.47
2018-02-09T17:36:03.948Z,56.83
2018-02-09T17:38:31.928Z,57.73
2018-02-09T17:41:00.411Z,58.70
2018-02-09T17:43:28.835Z,59.57
2018-02-09T17:45:56.608Z,59.60
2018-02-09T17:48:24.566Z,60.87
2018-02-09T17:50:54.349Z,59.40
2018-02-09T17:53:22.169Z,59.97
2018-02-09T17:55:49.891Z,60.93
2018-02-09T17:58:17.757Z,59.47
2018-02-09T18:00:45.547Z,58.90
2018-02-09T18:03:13.304Z,61.17
2018-02-09T18:05:42.924Z,61.53
2018-02-09T18:08:15.226Z,62.93
2018-02-09T18:10:43.626Z,61.60
2018-02-09T18:13:11.491Z,60.30
2018-02-09T18:15:40.236Z,59.70
2018-02-09T18:18:09.403Z,58.47
2018-02-09T18:23:21.008Z,59.00
2018-02-09T18:25:48.894Z,58.43
2018-02-09T18:28:17.650Z,64.47
2018-02-09T18:30:45.522Z,57.23
2018-02-09T18:33:22.357Z,60.13
2018-02-09T18:35:50.144Z,60.00
2018-02-09T18:38:21.041Z,58.60
2018-02-09T18:40:51.878Z,58.30
2018-02-09T18:43:21.990Z,58.77
2018-02-09T18:45:50.032Z,66.70
2018-02-09T18:48:18.038Z,56.83
2018-02-09T18:50:45.875Z,60.77
2018-02-09T18:53:13.805Z,60.40
2018-02-09T18:55:41.988Z,59.07
2018-02-09T18:58:15.011Z,58.43
2018-02-09T19:00:43.165Z,55.97
2018-02-09T19:03:16.769Z,58.00
2018-02-09T19:05:44.582Z,60.73
2018-02-09T19:08:12.662Z,62.90
2018-02-09T19:10:41.295Z,58.57
2018-02-09T19:13:21.731Z,57.60
2018-02-09T19:15:54.986Z,60.90
2018-02-09T19:21:08.989Z,61.27
2018-02-09T19:23:36.770Z,61.00
2018-02-09T19:26:04.505Z,59.93
2018-02-09T19:28:32.327Z,59.87
2018-02-09T19:31:00.084Z,67.33
2018-02-09T19:33:27.876Z,63.50
2018-02-09T19:35:55.668Z,61.90
2018-02-09T19:38:26.113Z,59.73
2018-02-09T19:40:53.930Z,64.07
2018-02-09T19:43:21.712Z,64.50
2018-02-09T19:45:49.536Z,62.50
2018-02-09T19:48:17.270Z,59.63
2018-02-09T19:50:45.062Z,63.37
2018-02-09T19:53:13.046Z,59.73
2018-02-09T19:55:40.784Z,58.00
2018-02-09T19:58:09.398Z,60.27
2018-02-09T20:00:38.695Z,64.50
2018-02-09T20:03:08.688Z,61.13
2018-02-09T20:05:37.711Z,60.87
2018-02-09T20:08:07.095Z,65.83
2018-02-09T20:10:35.098Z,62.77
2018-02-09T20:13:03.019Z,62.03
2018-02-09T20:15:31.495Z,59.73
2018-02-09T20:18:00.787Z,64.80
2018-02-09T20:20:30.706Z,60.07
2018-02-09T20:22:58.599Z,58.00
2018-02-09T20:25:26.741Z,61.70
2018-02-09T20:27:55.127Z,61.87
2018-02-09T20:30:24.719Z,59.93
2018-02-09T20:32:52.512Z,59.87
2018-02-09T20:35:22.079Z,59.73
2018-02-09T20:37:52.183Z,64.07
2018-02-09T20:40:21.706Z,58.93
2018-02-09T20:42:50.313Z,59.87
2018-02-09T20:45:18.486Z,59.53
2018-02-09T20:47:46.354Z,59.93
2018-02-09T20:50:17.651Z,63.10
2018-02-09T20:52:45.525Z,61.50
2018-02-09T20:55:14.984Z,59.50
2018-02-09T20:57:42.987Z,56.80
2018-02-09T21:00:13.813Z,61.93
2018-02-09T21:02:42.334Z,62.67
2018-02-09T21:05:12.461Z,62.00
2018-02-09T21:07:40.257Z,60.70
2018-02-09T21:10:08.010Z,61.93
2018-02-09T21:12:35.938Z,60.00
2018-02-09T21:15:06.615Z,60.07
2018-02-09T21:17:34.375Z,73.27
2018-02-09T21:20:02.918Z,61.30
2018-02-09T21:22:30.782Z,63.30
2018-02-09T21:24:58.529Z,57.37
2018-02-09T21:27:26.322Z,60.37
2018-02-09T21:29:54.120Z,59.97
2018-02-09T21:32:21.836Z,58.20
2018-02-09T21:34:50.368Z,58.90
2018-02-09T21:37:18.893Z,58.47
2018-02-09T21:39:46.667Z,57.50
2018-02-09T21:42:14.473Z,59.13
2018-02-09T21:44:42.264Z,60.80
2018-02-09T21:47:10.034Z,60.53
2018-02-09T21:49:37.763Z,58.47
2018-02-09T21:52:05.644Z,60.07
2018-02-09T21:54:33.372Z,58.43
2018-02-09T21:57:01.949Z,58.87
2018-02-09T21:59:29.760Z,60.17
2018-02-09T22:01:57.561Z,60.50
2018-02-09T22:04:26.088Z,58.37
2018-02-09T22:06:53.901Z,60.73
2018-02-09T22:09:21.659Z,63.07
2018-02-09T22:11:49.469Z,60.30
2018-02-09T22:14:17.272Z,58.87
2018-02-09T22:16:45.027Z,60.57
2018-02-09T22:19:12.817Z,60.27
2018-02-09T22:21:40.552Z,58.03
2018-02-09T22:24:08.275Z,63.90
2018-02-09T22:26:36.006Z,61.27
2018-02-09T22:29:03.811Z,58.93
2018-02-09T22:31:31.614Z,59.87
2018-02-09T22:33:59.399Z,58.13
2018-02-09T22:36:27.125Z,58.27
2018-02-09T22:38:54.876Z,56.07
2018-02-09T22:41:22.621Z,56.90
2018-02-09T22:43:50.411Z,55.03
2018-02-09T22:46:18.237Z,58.57
2018-02-09T22:48:46.011Z,49.33
2018-02-09T22:51:13.804Z,44.70
2018-02-09T22:53:41.527Z,49.70
2018-02-09T22:56:09.304Z,47.70
2018-02-09T22:58:37.041Z,40.83
2018-02-09T23:01:04.784Z,41.43
2018-02-09T23:03:32.589Z,39.27
2018-02-09T23:06:00.337Z,40.13
2018-02-09T23:08:28.063Z,39.83
2018-02-09T23:10:55.853Z,40.20
2018-02-09T23:13:25.069Z,43.40
2018-02-09T23:15:52.796Z,43.90
2018-02-09T23:18:21.364Z,43.73
2018-02-09T23:20:49.092Z,42.73
2018-02-09T23:23:16.829Z,43.07
2018-02-09T23:25:44.551Z,40.50
2018-02-09T23:28:12.310Z,43.37
2018-02-09T23:30:40.059Z,39.80
2018-02-09T23:33:07.869Z,38.90
2018-02-09T23:35:35.669Z,36.20
2018-02-09T23:38:03.489Z,37.80
2018-02-09T23:40:31.229Z,36.90
2018-02-09T23:42:59.040Z,36.20
2018-02-09T23:45:26.760Z,37.10
2018-02-09T23:47:54.601Z,35.40
2018-02-09T23:50:22.403Z,31.70
2018-02-09T23:52:50.130Z,29.73
2018-02-09T23:55:17.907Z,29.47
2018-02-09T23:57:45.686Z,29.70
